createdAt,value
2019-02-20T00:01:06.378Z,95226.80
2019-02-20T00:03:34.887Z,95225.69
2019-02-20T00:06:04.680Z,95217.70
2019-02-20T00:08:33.307Z,95221.07
2019-02-20T00:11:01.929Z,95224.80
2019-02-20T00:13:30.447Z,95226.48
2019-02-20T00:15:58.933Z,95230.15
2019-02-20T00:18:27.558Z,95224.59
2019-02-20T00:20:56.239Z,95223.95
2019-02-20T00:23:24.785Z,95218.30
2019-02-20T00:25:53.429Z,95222.25
2019-02-20T00:28:22.066Z,95215.98
2019-02-20T00:30:50.731Z,95214.77
2019-02-20T00:33:19.341Z,95221.37
2019-02-20T00:35:48.116Z,95221.19
2019-02-20T00:38:16.677Z,95215.86
2019-02-20T00:40:45.311Z,95212.16
2019-02-20T00:43:14.138Z,95210.62
2019-02-20T00:45:44.398Z,95216.18
2019-02-20T00:48:26.634Z,95217.41
2019-02-20T00:50:59.765Z,95214.62
2019-02-20T00:53:33.031Z,95209.47
2019-02-20T00:56:01.641Z,95210.56
2019-02-20T00:58:30.121Z,95205.66
2019-02-20T01:00:58.656Z,95208.52
2019-02-20T01:03:27.264Z,95202.07
2019-02-20T01:05:55.832Z,95202.95
2019-02-20T01:08:24.777Z,95201.89
2019-02-20T01:10:53.428Z,95203.00
2019-02-20T01:13:21.908Z,95208.14
2019-02-20T01:15:50.438Z,95198.16
2019-02-20T01:18:19.068Z,95202.28
2019-02-20T01:20:47.779Z,95200.69
2019-02-20T01:23:16.484Z,95202.89
2019-02-20T01:25:44.977Z,95209.17
2019-02-20T01:28:13.607Z,95201.38
2019-02-20T01:30:42.548Z,95196.57
2019-02-20T01:33:11.036Z,95201.48
2019-02-20T01:35:39.530Z,95201.39
2019-02-20T01:38:09.195Z,95207.78
2019-02-20T01:40:37.825Z,95203.81
2019-02-20T01:43:06.433Z,95197.34
2019-02-20T01:45:35.096Z,95199.98
2019-02-20T01:48:03.658Z,95192.97
2019-02-20T01:50:32.142Z,95195.30
2019-02-20T01:53:10.087Z,95200.23
2019-02-20T01:55:31.170Z,95196.16
2019-02-20T01:57:59.729Z,95198.72
2019-02-20T02:00:28.529Z,95190.06
2019-02-20T02:02:57.170Z,95185.65
2019-02-20T02:05:25.801Z,95178.92
2019-02-20T02:07:54.414Z,95178.73
2019-02-20T02:10:23.048Z,95179.16
2019-02-20T02:12:51.674Z,95182.60
2019-02-20T02:15:20.850Z,95182.79
2019-02-20T02:17:52.284Z,95186.47
2019-02-20T02:20:20.766Z,95185.12
2019-02-20T02:22:49.416Z,95185.98
2019-02-20T02:25:18.002Z,95189.84
2019-02-20T02:27:46.625Z,95187.22
2019-02-20T02:30:15.341Z,95181.67
2019-02-20T02:32:44.017Z,95186.38
2019-02-20T02:35:12.580Z,95187.89
2019-02-20T02:37:41.225Z,95182.47
2019-02-20T02:40:09.869Z,95183.28
2019-02-20T02:42:38.388Z,95176.95
2019-02-20T02:45:07.352Z,95185.44
2019-02-20T02:47:36.011Z,95191.01
2019-02-20T02:50:06.042Z,95184.78
2019-02-20T02:52:34.526Z,95185.02
2019-02-20T02:55:03.117Z,95191.52
2019-02-20T02:57:31.746Z,95189.92
2019-02-20T03:00:00.436Z,95188.26
2019-02-20T03:02:28.958Z,95185.67
2019-02-20T03:04:57.592Z,95180.52
2019-02-20T03:07:26.169Z,95183.16
2019-02-20T03:09:54.886Z,95177.67
2019-02-20T03:12:23.516Z,95184.16
2019-02-20T03:14:52.136Z,95189.66
2019-02-20T03:17:20.721Z,95189.05
2019-02-20T03:19:49.279Z,95185.95
2019-02-20T03:22:17.925Z,95187.45
2019-02-20T03:24:46.661Z,95194.14
2019-02-20T03:27:15.163Z,95187.06
2019-02-20T03:29:43.719Z,95190.03
2019-02-20T03:32:12.440Z,95195.09
2019-02-20T03:34:41.065Z,95194.89
2019-02-20T03:37:09.583Z,95201.63
2019-02-20T03:39:54.197Z,95197.80
2019-02-20T03:42:22.873Z,95200.50
2019-02-20T03:44:51.365Z,95198.38
2019-02-20T03:47:20.331Z,95197.66
2019-02-20T03:49:49.042Z,95196.47
2019-02-20T03:52:17.603Z,95187.67
2019-02-20T03:54:46.162Z,95188.08
2019-02-20T03:57:15.050Z,95184.25
2019-02-20T03:59:43.691Z,95185.02
2019-02-20T04:02:12.292Z,95193.10
2019-02-20T04:04:40.810Z,95182.09
2019-02-20T04:07:09.442Z,95178.20
2019-02-20T04:09:38.074Z,95177.02
2019-02-20T04:12:12.066Z,95178.34
2019-02-20T04:14:40.686Z,95178.20
2019-02-20T04:17:09.322Z,95174.53
2019-02-20T04:19:37.962Z,95171.06
2019-02-20T04:22:06.450Z,95182.62
2019-02-20T04:24:35.000Z,95185.88
2019-02-20T04:27:03.643Z,95183.23
2019-02-20T04:29:32.359Z,95186.62
2019-02-20T04:32:00.893Z,95187.58
2019-02-20T04:34:29.445Z,95185.23
2019-02-20T04:36:58.076Z,95188.21
2019-02-20T04:39:26.736Z,95191.27
2019-02-20T04:41:55.298Z,95192.05
2019-02-20T04:44:23.786Z,95190.17
2019-02-20T04:46:52.406Z,95185.97
2019-02-20T04:49:21.053Z,95179.48
2019-02-20T04:51:49.694Z,95180.09
2019-02-20T04:54:18.369Z,95188.38
2019-02-20T04:56:47.060Z,95182.58
2019-02-20T04:59:15.694Z,95189.89
2019-02-20T05:01:44.460Z,95191.22
2019-02-20T05:04:13.084Z,95190.34
2019-02-20T05:06:41.638Z,95190.16
2019-02-20T05:09:10.313Z,95198.00
2019-02-20T05:11:38.937Z,95190.41
2019-02-20T05:14:07.580Z,95191.93
2019-02-20T05:16:36.373Z,95193.45
2019-02-20T05:19:04.926Z,95191.33
2019-02-20T05:21:33.577Z,95196.92
2019-02-20T05:24:02.230Z,95200.02
2019-02-20T05:26:30.722Z,95195.62
2019-02-20T05:29:02.003Z,95205.83
2019-02-20T05:31:30.657Z,95209.13
2019-02-20T05:33:59.291Z,95206.33
2019-02-20T05:36:27.862Z,95199.31
2019-02-20T05:38:56.592Z,95222.39
2019-02-20T05:41:25.208Z,95231.77
2019-02-20T05:43:53.707Z,95228.10
2019-02-20T05:46:22.392Z,95225.84
2019-02-20T05:48:51.010Z,95231.75
2019-02-20T05:51:19.571Z,95241.73
2019-02-20T05:53:48.266Z,95247.45
2019-02-20T05:56:16.922Z,95245.53
2019-02-20T05:58:45.559Z,95242.59
2019-02-20T06:01:14.087Z,95236.16
2019-02-20T06:03:42.593Z,95242.58
2019-02-20T06:06:11.210Z,95244.14
2019-02-20T06:08:39.878Z,95254.98
2019-02-20T06:11:14.628Z,95256.12
2019-02-20T06:13:38.729Z,95244.88
2019-02-20T06:16:07.413Z,95251.75
2019-02-20T06:18:36.046Z,95251.78
2019-02-20T06:21:04.637Z,95257.83
2019-02-20T06:23:33.289Z,95250.73
2019-02-20T06:26:01.776Z,95262.56
2019-02-20T06:28:30.272Z,95270.06
2019-02-20T06:30:58.987Z,95276.97
2019-02-20T06:33:27.631Z,95274.98
2019-02-20T06:35:56.202Z,95277.44
2019-02-20T06:38:24.928Z,95273.14
2019-02-20T06:40:53.553Z,95285.22
2019-02-20T06:43:22.174Z,95286.59
2019-02-20T06:45:53.439Z,95281.58
2019-02-20T06:48:21.926Z,95287.78
2019-02-20T06:50:50.619Z,95284.58
2019-02-20T06:53:19.400Z,95285.69
2019-02-20T06:55:47.908Z,95295.94
2019-02-20T06:58:16.448Z,95296.45
2019-02-20T07:00:45.508Z,95300.40
2019-02-20T07:03:14.140Z,95286.53
2019-02-20T07:05:42.720Z,95290.80
2019-02-20T07:08:14.302Z,95290.02
2019-02-20T07:11:11.305Z,95295.23
2019-02-20T07:13:54.794Z,95294.61
2019-02-20T07:16:57.929Z,95294.01
2019-02-20T07:19:41.572Z,95293.84
2019-02-20T07:22:29.766Z,95290.20
2019-02-20T07:25:03.345Z,95287.53
2019-02-20T07:27:59.787Z,95298.74
2019-02-20T07:30:28.391Z,95297.36
2019-02-20T07:32:57.027Z,95293.86
2019-02-20T07:35:25.671Z,95292.02
2019-02-20T07:37:54.218Z,95292.88
2019-02-20T07:40:22.803Z,95290.95
2019-02-20T07:42:51.440Z,95292.62
2019-02-20T07:45:19.962Z,95293.06
2019-02-20T07:47:48.608Z,95299.66
2019-02-20T07:50:17.440Z,95300.72
2019-02-20T07:52:46.118Z,95305.77
2019-02-20T07:55:14.757Z,95299.50
2019-02-20T07:57:43.455Z,95304.84
2019-02-20T08:00:14.465Z,95304.82
2019-02-20T08:02:43.032Z,95295.16
2019-02-20T08:05:11.782Z,95291.41
2019-02-20T08:07:40.679Z,95296.58
2019-02-20T08:10:11.200Z,95289.67
2019-02-20T08:12:39.698Z,95288.37
2019-02-20T08:15:10.557Z,95297.95
2019-02-20T08:17:39.178Z,95291.80
2019-02-20T08:20:09.805Z,95290.59
2019-02-20T08:22:38.422Z,95286.06
2019-02-20T08:25:07.753Z,95287.23
2019-02-20T08:27:36.452Z,95286.48
2019-02-20T08:30:08.429Z,95288.45
2019-02-20T08:32:37.100Z,95287.41
2019-02-20T08:35:07.628Z,95287.53
2019-02-20T08:37:36.295Z,95284.66
2019-02-20T08:40:07.569Z,95282.19
2019-02-20T08:42:36.222Z,95281.14
2019-02-20T08:45:05.953Z,95284.08
2019-02-20T08:47:34.507Z,95279.51
2019-02-20T08:50:02.992Z,95281.94
2019-02-20T08:52:31.667Z,95284.82
2019-02-20T08:55:00.352Z,95287.09
2019-02-20T08:57:28.880Z,95285.88
2019-02-20T08:59:57.387Z,95288.33
2019-02-20T09:02:26.098Z,95286.34
2019-02-20T09:04:54.896Z,95284.47
2019-02-20T09:07:23.569Z,95286.45
2019-02-20T09:09:52.247Z,95284.45
2019-02-20T09:12:20.741Z,95285.09
2019-02-20T09:14:49.242Z,95279.04
2019-02-20T09:17:17.881Z,95286.07
2019-02-20T09:19:46.526Z,95288.61
2019-02-20T09:22:15.110Z,95278.11
2019-02-20T09:24:43.598Z,95280.88
2019-02-20T09:27:12.225Z,95278.05
2019-02-20T09:29:40.906Z,95270.75
2019-02-20T09:32:09.470Z,95274.13
2019-02-20T09:34:38.035Z,95270.78
2019-02-20T09:37:06.706Z,95277.20
2019-02-20T09:39:36.849Z,95276.61
2019-02-20T09:42:07.003Z,95283.17
2019-02-20T09:44:38.731Z,95276.17
2019-02-20T09:47:07.352Z,95274.63
2019-02-20T09:49:35.983Z,95273.72
2019-02-20T09:52:04.543Z,95266.98
2019-02-20T09:54:33.025Z,95269.70
2019-02-20T09:57:01.772Z,95262.76
2019-02-20T09:59:30.382Z,95257.83
2019-02-20T10:01:58.924Z,95256.36
2019-02-20T10:04:27.527Z,95253.48
2019-02-20T10:06:56.161Z,95259.72
2019-02-20T10:09:24.799Z,95255.67
2019-02-20T10:11:53.453Z,95255.08
2019-02-20T10:14:22.031Z,95257.12
2019-02-20T10:16:50.662Z,95246.55
2019-02-20T10:19:19.506Z,95241.93
2019-02-20T10:21:48.015Z,95226.33
2019-02-20T10:24:16.661Z,95229.13
2019-02-20T10:26:45.253Z,95212.98
2019-02-20T10:29:13.756Z,95218.05
2019-02-20T10:31:42.384Z,95210.06
2019-02-20T10:34:11.319Z,95202.78
2019-02-20T10:36:39.837Z,95195.84
2019-02-20T10:39:08.321Z,95188.68
2019-02-20T10:41:36.990Z,95187.39
2019-02-20T10:44:05.632Z,95189.56
2019-02-20T10:46:40.186Z,95186.22
2019-02-20T10:49:08.847Z,95189.33
2019-02-20T10:51:37.482Z,95179.30
2019-02-20T10:54:06.111Z,95184.23
2019-02-20T10:56:34.699Z,95180.49
2019-02-20T10:59:03.327Z,95162.84
2019-02-20T11:01:31.963Z,95174.82
2019-02-20T11:04:00.646Z,95167.17
2019-02-20T11:06:29.309Z,95168.09
2019-02-20T11:08:57.948Z,95164.91
2019-02-20T11:11:26.474Z,95159.63
2019-02-20T11:13:55.034Z,95167.47
2019-02-20T11:16:23.668Z,95163.34
2019-02-20T11:18:52.325Z,95155.77
2019-02-20T11:21:20.890Z,95155.08
2019-02-20T11:23:49.455Z,95165.59
2019-02-20T11:26:18.781Z,95155.71
2019-02-20T11:28:47.516Z,95159.68
2019-02-20T11:31:16.014Z,95154.05
2019-02-20T11:33:44.610Z,95164.16
2019-02-20T11:36:13.240Z,95161.36
2019-02-20T11:38:41.892Z,95156.84
2019-02-20T11:41:10.563Z,95161.18
2019-02-20T11:43:39.194Z,95159.56
2019-02-20T11:46:07.780Z,95159.06
2019-02-20T11:48:36.267Z,95149.15
2019-02-20T11:51:04.887Z,95139.94
2019-02-20T11:53:37.186Z,95156.43
2019-02-20T11:56:03.847Z,95144.27
2019-02-20T11:58:32.334Z,95147.29
2019-02-20T12:01:01.034Z,95154.24
2019-02-20T12:03:29.819Z,95145.53
2019-02-20T12:05:58.309Z,95147.20
2019-02-20T12:08:26.789Z,95149.12
2019-02-20T12:10:55.458Z,95145.82
2019-02-20T12:13:24.092Z,95137.84
2019-02-20T12:15:52.653Z,95141.05
2019-02-20T12:18:21.183Z,95142.70
2019-02-20T12:20:49.807Z,95137.63
2019-02-20T12:23:18.363Z,95143.06
2019-02-20T12:25:47.276Z,95147.80
2019-02-20T12:28:15.925Z,95143.34
2019-02-20T12:30:44.474Z,95147.03
2019-02-20T12:33:13.632Z,95142.64
2019-02-20T12:35:42.365Z,95153.16
2019-02-20T12:38:11.168Z,95140.65
2019-02-20T12:40:39.764Z,95140.75
2019-02-20T12:43:08.324Z,95140.95
2019-02-20T12:45:36.953Z,95132.22
2019-02-20T12:48:05.577Z,95135.35
2019-02-20T12:50:34.157Z,95138.75
2019-02-20T12:53:02.677Z,95132.13
2019-02-20T12:55:31.300Z,95127.59
2019-02-20T12:58:00.022Z,95119.88
2019-02-20T13:00:28.789Z,95128.70
2019-02-20T13:02:57.509Z,95128.34
2019-02-20T13:05:26.078Z,95130.02
2019-02-20T13:07:54.671Z,95133.44
2019-02-20T13:10:23.303Z,95135.53
2019-02-20T13:12:51.933Z,95125.73
2019-02-20T13:15:20.675Z,95132.18
2019-02-20T13:17:49.224Z,95132.91
2019-02-20T13:20:17.861Z,95140.00
2019-02-20T13:22:46.721Z,95135.95
2019-02-20T13:25:15.347Z,95136.50
2019-02-20T13:27:43.952Z,95136.50
2019-02-20T13:30:14.318Z,95141.81
2019-02-20T13:32:43.536Z,95143.70
2019-02-20T13:35:12.259Z,95135.95
2019-02-20T13:37:40.784Z,95145.00
2019-02-20T13:40:11.011Z,95141.07
2019-02-20T13:42:39.502Z,95139.33
2019-02-20T13:45:09.180Z,95141.88
2019-02-20T13:47:37.821Z,95143.61
2019-02-20T13:50:08.857Z,95139.20
2019-02-20T13:52:37.521Z,95144.72
2019-02-20T13:55:06.461Z,95148.41
2019-02-20T13:57:35.166Z,95151.24
2019-02-20T14:00:04.028Z,95149.47
2019-02-20T14:02:32.606Z,95148.16
2019-02-20T14:05:01.303Z,95151.09
2019-02-20T14:07:30.213Z,95154.42
2019-02-20T14:09:58.985Z,95161.83
2019-02-20T14:12:27.542Z,95163.00
2019-02-20T14:14:56.218Z,95154.56
2019-02-20T14:17:26.888Z,95162.80
2019-02-20T14:19:55.149Z,95159.36
2019-02-20T14:22:24.081Z,95161.23
2019-02-20T14:24:52.594Z,95171.19
2019-02-20T14:27:21.248Z,95172.08
2019-02-20T14:29:49.924Z,95169.16
2019-02-20T14:32:18.589Z,95172.30
2019-02-20T14:34:47.082Z,95165.59
2019-02-20T14:37:15.605Z,95172.66
2019-02-20T14:39:44.243Z,95164.74
2019-02-20T14:42:13.257Z,95158.84
2019-02-20T14:44:41.800Z,95166.56
2019-02-20T14:47:10.488Z,95161.60
2019-02-20T14:49:39.126Z,95171.73
2019-02-20T14:52:07.972Z,95178.94
2019-02-20T14:54:36.460Z,95170.84
2019-02-20T14:57:05.100Z,95177.05
2019-02-20T14:59:34.182Z,95171.66
2019-02-20T15:02:02.809Z,95182.41
2019-02-20T15:04:31.299Z,95176.25
2019-02-20T15:06:59.897Z,95175.89
2019-02-20T15:09:28.521Z,95180.67
2019-02-20T15:11:57.162Z,95184.52
2019-02-20T15:14:26.374Z,95181.06
2019-02-20T15:16:54.934Z,95179.69
2019-02-20T15:19:23.559Z,95184.34
2019-02-20T15:21:52.234Z,95190.78
2019-02-20T15:24:20.819Z,95184.23
2019-02-20T15:26:49.391Z,95187.16
2019-02-20T15:29:18.086Z,95192.51
2019-02-20T15:31:46.925Z,95185.69
2019-02-20T15:34:15.513Z,95196.38
2019-02-20T15:36:44.047Z,95189.08
2019-02-20T15:39:12.698Z,95186.05
2019-02-20T15:41:41.299Z,95186.20
2019-02-20T15:44:09.984Z,95184.40
2019-02-20T15:46:38.612Z,95187.31
2019-02-20T15:49:07.455Z,95191.76
2019-02-20T15:51:36.371Z,95194.06
2019-02-20T15:54:05.036Z,95195.28
2019-02-20T15:56:33.684Z,95200.33
2019-02-20T15:59:02.308Z,95201.25
2019-02-20T16:01:30.884Z,95202.94
2019-02-20T16:03:59.538Z,95209.48
2019-02-20T16:06:28.187Z,95207.50
2019-02-20T16:08:56.687Z,95214.08
2019-02-20T16:11:25.251Z,95213.30
2019-02-20T16:13:54.190Z,95219.56
2019-02-20T16:16:22.817Z,95220.17
2019-02-20T16:18:51.472Z,95234.34
2019-02-20T16:21:20.430Z,95235.87
2019-02-20T16:23:48.930Z,95233.09
2019-02-20T16:26:17.493Z,95238.28
2019-02-20T16:28:46.176Z,95243.42
2019-02-20T16:31:14.813Z,95241.58
2019-02-20T16:33:43.467Z,95252.22
2019-02-20T16:36:12.051Z,95256.03
2019-02-20T16:38:40.948Z,95253.25
2019-02-20T16:41:09.579Z,95261.45
2019-02-20T16:43:38.190Z,95265.06
2019-02-20T16:46:06.824Z,95262.02
2019-02-20T16:48:35.440Z,95263.50
2019-02-20T16:51:04.114Z,95274.73
2019-02-20T16:53:32.675Z,95269.70
2019-02-20T16:56:01.413Z,95281.70
2019-02-20T16:58:30.324Z,95283.47
2019-02-20T17:00:59.031Z,95290.89
2019-02-20T17:03:27.668Z,95296.23
2019-02-20T17:05:56.347Z,95293.63
2019-02-20T17:08:24.897Z,95298.47
2019-02-20T17:10:53.993Z,95301.47
2019-02-20T17:13:22.838Z,95304.91
2019-02-20T17:15:51.786Z,95305.64
2019-02-20T17:18:20.337Z,95313.71
2019-02-20T17:20:49.101Z,95316.08
2019-02-20T17:23:17.741Z,95313.33
2019-02-20T17:25:46.381Z,95317.05
2019-02-20T17:28:15.659Z,95324.41
2019-02-20T17:30:44.282Z,95324.41
2019-02-20T17:33:12.910Z,95326.28
2019-02-20T17:35:41.579Z,95325.16
2019-02-20T17:38:10.210Z,95331.19
2019-02-20T17:40:38.846Z,95330.28
2019-02-20T17:43:07.961Z,95337.20
2019-02-20T17:45:36.454Z,95338.83
2019-02-20T17:48:05.106Z,95336.78
2019-02-20T17:50:33.766Z,95346.14
2019-02-20T17:53:02.398Z,95351.78
2019-02-20T17:55:31.045Z,95362.95
2019-02-20T17:57:59.882Z,95351.73
2019-02-20T18:00:32.407Z,95357.75
2019-02-20T18:03:01.045Z,95359.37
2019-02-20T18:05:29.639Z,95360.70
2019-02-20T18:07:58.257Z,95365.06
2019-02-20T18:10:26.877Z,95374.37
2019-02-20T18:12:55.494Z,95372.01
2019-02-20T18:15:24.052Z,95374.09
2019-02-20T18:17:52.686Z,95369.73
2019-02-20T18:20:21.291Z,95374.20
2019-02-20T18:22:49.942Z,95375.67
2019-02-20T18:25:18.575Z,95382.55
2019-02-20T18:27:47.178Z,95384.97
2019-02-20T18:30:16.609Z,95385.62
2019-02-20T18:32:45.326Z,95381.36
2019-02-20T18:35:18.737Z,95385.14
2019-02-20T18:37:47.392Z,95386.44
2019-02-20T18:40:17.146Z,95387.31
2019-02-20T18:42:45.991Z,95394.08
2019-02-20T18:45:15.715Z,95389.49
2019-02-20T18:47:44.468Z,95402.04
2019-02-20T18:50:14.435Z,95402.31
2019-02-20T18:52:43.055Z,95401.30
2019-02-20T18:55:13.283Z,95407.22
2019-02-20T18:57:42.075Z,95411.31
2019-02-20T19:00:18.995Z,95414.22
2019-02-20T19:02:47.670Z,95419.44
2019-02-20T19:05:18.723Z,95421.50
2019-02-20T19:07:46.751Z,95418.47
2019-02-20T19:10:36.818Z,95419.72
2019-02-20T19:13:38.191Z,95416.14
2019-02-20T19:16:15.764Z,95424.26
2019-02-20T19:19:02.366Z,95432.62
2019-02-20T19:21:47.800Z,95431.46
2019-02-20T19:24:22.361Z,95433.06
2019-02-20T19:27:02.552Z,95439.90
2019-02-20T19:29:34.078Z,95436.42
2019-02-20T19:32:28.374Z,95439.84
2019-02-20T19:35:16.346Z,95444.09
2019-02-20T19:38:09.596Z,95442.41
2019-02-20T19:41:13.163Z,95444.09
2019-02-20T19:43:50.688Z,95449.15
2019-02-20T19:46:50.970Z,95452.75
2019-02-20T19:49:25.210Z,95448.07
2019-02-20T19:52:19.616Z,95448.16
2019-02-20T19:54:56.728Z,95442.34
2019-02-20T19:57:36.902Z,95449.70
2019-02-20T20:00:32.192Z,95451.16
2019-02-20T20:03:29.608Z,95448.59
2019-02-20T20:06:09.901Z,95449.63
2019-02-20T20:08:41.464Z,95457.23
2019-02-20T20:11:31.188Z,95454.68
2019-02-20T20:14:34.964Z,95440.59
2019-02-20T20:17:14.936Z,95445.63
2019-02-20T20:20:01.482Z,95448.45
2019-02-20T20:22:41.524Z,95446.31
2019-02-20T20:25:19.046Z,95447.68
2019-02-20T20:27:53.849Z,95450.41
2019-02-20T20:30:42.147Z,95448.36
2019-02-20T20:33:39.356Z,95450.67
2019-02-20T20:36:16.884Z,95454.00
2019-02-20T20:39:00.431Z,95449.55
2019-02-20T20:41:37.661Z,95449.63
2019-02-20T20:44:44.069Z,95450.14
2019-02-20T20:47:47.314Z,95456.78
2019-02-20T20:50:44.435Z,95455.42
2019-02-20T20:53:24.782Z,95460.64
2019-02-20T20:56:08.539Z,95451.50
2019-02-20T20:58:40.088Z,95465.23
2019-02-20T21:01:26.649Z,95470.18
2019-02-20T21:04:20.432Z,95472.55
2019-02-20T21:07:14.400Z,95465.14
2019-02-20T21:09:55.197Z,95463.41
2019-02-20T21:12:38.844Z,95467.94
2019-02-20T21:15:19.646Z,95474.31
2019-02-20T21:17:53.965Z,95467.84
2019-02-20T21:20:44.033Z,95470.39
2019-02-20T21:23:21.577Z,95468.58
2019-02-20T21:26:05.656Z,95478.41
2019-02-20T21:28:49.104Z,95472.03
2019-02-20T21:31:37.410Z,95471.16
2019-02-20T21:34:14.590Z,95472.43
2019-02-20T21:36:46.167Z,95472.33
2019-02-20T21:39:17.715Z,95468.91
2019-02-20T21:41:58.612Z,95471.17
2019-02-20T21:44:42.500Z,95476.75
2019-02-20T21:47:40.110Z,95470.95
2019-02-20T21:50:17.310Z,95473.60
2019-02-20T21:52:54.920Z,95469.68
2019-02-20T21:55:35.118Z,95477.33
2019-02-20T21:58:18.755Z,95463.96
2019-02-20T22:01:12.963Z,95482.30
2019-02-20T22:04:02.721Z,95488.45
2019-02-20T22:06:53.276Z,95478.55
2019-02-20T22:09:42.985Z,95486.20
2019-02-20T22:12:19.793Z,95490.66
2019-02-20T22:15:12.052Z,95497.99
2019-02-20T22:17:43.598Z,95496.80
2019-02-20T22:20:18.011Z,95500.64
2019-02-20T22:23:07.870Z,95499.88
2019-02-20T22:25:57.099Z,95502.09
2019-02-20T22:28:43.487Z,95494.74
2019-02-20T22:31:39.377Z,95505.91
2019-02-20T22:34:29.233Z,95505.08
2019-02-20T22:37:03.977Z,95513.19
2019-02-20T22:39:55.158Z,95512.52
2019-02-20T22:42:26.792Z,95503.73
2019-02-20T22:45:09.776Z,95503.56
2019-02-20T22:47:57.687Z,95504.06
2019-02-20T22:51:04.414Z,95503.23
2019-02-20T22:53:41.704Z,95504.24
2019-02-20T22:56:16.154Z,95499.92
2019-02-20T22:58:50.363Z,95500.51
2019-02-20T23:01:30.840Z,95497.60
2019-02-20T23:04:02.417Z,95500.93
2019-02-20T23:07:01.281Z,95497.23
2019-02-20T23:09:44.954Z,95497.69
2019-02-20T23:12:39.293Z,95494.88
2019-02-20T23:15:07.889Z,95497.69
2019-02-20T23:17:36.442Z,95503.92
2019-02-20T23:20:07.668Z,95506.20
2019-02-20T23:22:36.189Z,95505.11
2019-02-20T23:25:06.016Z,95506.38
2019-02-20T23:27:34.732Z,95502.97
2019-02-20T23:30:12.555Z,95499.05
2019-02-20T23:32:33.966Z,95503.24
2019-02-20T23:35:02.701Z,95499.14
2019-02-20T23:37:31.616Z,95498.97
2019-02-20T23:40:00.307Z,95499.82
2019-02-20T23:42:28.882Z,95506.75
2019-02-20T23:44:57.544Z,95500.16
2019-02-20T23:47:26.177Z,95506.98
2019-02-20T23:49:56.547Z,95504.70
2019-02-20T23:52:25.141Z,95505.38
2019-02-20T23:54:53.776Z,95507.84
2019-02-20T23:57:22.259Z,95510.31
2019-02-20T23:59:50.808Z,95512.63
